Terminal Aerodrome Forecast
Issued by NWS Paducah, KY

Home | Current Version | Previous Version | Text Only | Print | Product List | Glossary On
Versions: 1 2 3 4 5 6 7 8 9 10 11 12 13 14 15 16 17 18
000
FTUS43 KPAH 241605 AAC
TAFPAH
TAF AMD
KPAH 241605Z 2416/2512 21006KT P6SM SCT025 BKN035
      TEMPO 2416/2420 BKN025
     FM242000 19006KT P6SM SCT040 BKN150
     FM250100 VRB03KT P6SM SCT150
     FM250600 00000KT P6SM SCT100
      TEMPO 2509/2512 5SM BR=

USA.gov is the U.S. government's official web portal to all federal, state and local government web resources and services.